sensor_id;sensor_type;location;lat;lon;timestamp;P1;durP1;ratioP1;P2;durP2;ratioP2
51985;SDS011;38002;53.296;6.600;2023-01-15T00:02:12;6.90;;;1.20;;
51985;SDS011;38002;53.296;6.600;2023-01-15T00:07:16;6.32;;;1.00;;
51985;SDS011;38002;53.296;6.600;2023-01-15T00:12:16;8.32;;;1.08;;
51985;SDS011;38002;53.296;6.600;2023-01-15T00:17:17;6.50;;;1.60;;
51985;SDS011;38002;53.296;6.600;2023-01-15T00:22:17;9.05;;;1.38;;
51985;SDS011;38002;53.296;6.600;2023-01-15T00:27:17;7.30;;;1.08;;
51985;SDS011;38002;53.296;6.600;2023-01-15T00:32:37;10.73;;;1.08;;
51985;SDS011;38002;53.296;6.600;2023-01-15T00:37:38;9.47;;;1.73;;
51985;SDS011;38002;53.296;6.600;2023-01-15T00:42:39;10.82;;;1.08;;
51985;SDS011;38002;53.296;6.600;2023-01-15T00:47:40;2.92;;;1.40;;
51985;SDS011;38002;53.296;6.600;2023-01-15T00:52:43;10.35;;;2.03;;
51985;SDS011;38002;53.296;6.600;2023-01-15T00:57:43;9.52;;;1.20;;
51985;SDS011;38002;53.296;6.600;2023-01-15T01:02:44;7.50;;;1.23;;
51985;SDS011;38002;53.296;6.600;2023-01-15T01:07:44;6.45;;;2.88;;
51985;SDS011;38002;53.296;6.600;2023-01-15T01:12:44;8.05;;;2.70;;
51985;SDS011;38002;53.296;6.600;2023-01-15T01:17:47;4.00;;;1.15;;
51985;SDS011;38002;53.296;6.600;2023-01-15T01:22:48;12.25;;;1.70;;
51985;SDS011;38002;53.296;6.600;2023-01-15T01:27:48;10.55;;;1.33;;
51985;SDS011;38002;53.296;6.600;2023-01-15T01:32:49;10.90;;;1.73;;
51985;SDS011;38002;53.296;6.600;2023-01-15T01:37:50;9.25;;;1.58;;
51985;SDS011;38002;53.296;6.600;2023-01-15T01:42:50;11.93;;;1.83;;
51985;SDS011;38002;53.296;6.600;2023-01-15T01:47:58;10.30;;;1.20;;
51985;SDS011;38002;53.296;6.600;2023-01-15T01:53:05;8.55;;;1.15;;
51985;SDS011;38002;53.296;6.600;2023-01-15T01:58:09;9.07;;;2.58;;
51985;SDS011;38002;53.296;6.600;2023-01-15T02:03:12;13.10;;;2.17;;
51985;SDS011;38002;53.296;6.600;2023-01-15T02:08:13;7.97;;;1.83;;
51985;SDS011;38002;53.296;6.600;2023-01-15T02:28:59;7.28;;;0.93;;
51985;SDS011;38002;53.296;6.600;2023-01-15T02:34:04;10.57;;;1.50;;
51985;SDS011;38002;53.296;6.600;2023-01-15T02:39:11;11.50;;;1.50;;
51985;SDS011;38002;53.296;6.600;2023-01-15T02:44:16;4.93;;;0.85;;
51985;SDS011;38002;53.296;6.600;2023-01-15T02:49:19;13.90;;;2.00;;
51985;SDS011;38002;53.296;6.600;2023-01-15T02:54:20;14.40;;;1.88;;
51985;SDS011;38002;53.296;6.600;2023-01-15T02:59:29;7.80;;;1.10;;
51985;SDS011;38002;53.296;6.600;2023-01-15T03:09:51;7.15;;;1.40;;
51985;SDS011;38002;53.296;6.600;2023-01-15T03:15:07;7.93;;;1.23;;
51985;SDS011;38002;53.296;6.600;2023-01-15T03:20:32;11.45;;;1.40;;
51985;SDS011;38002;53.296;6.600;2023-01-15T03:25:39;11.13;;;1.52;;
51985;SDS011;38002;53.296;6.600;2023-01-15T03:30:42;9.93;;;1.45;;
51985;SDS011;38002;53.296;6.600;2023-01-15T03:46:38;13.60;;;1.60;;
51985;SDS011;38002;53.296;6.600;2023-01-15T03:57:04;17.80;;;1.88;;
51985;SDS011;38002;53.296;6.600;2023-01-15T04:02:12;8.45;;;1.45;;
51985;SDS011;38002;53.296;6.600;2023-01-15T04:07:15;9.95;;;1.70;;
51985;SDS011;38002;53.296;6.600;2023-01-15T04:12:16;10.53;;;1.00;;
51985;SDS011;38002;53.296;6.600;2023-01-15T04:17:16;6.18;;;1.75;;
51985;SDS011;38002;53.296;6.600;2023-01-15T04:22:17;15.20;;;1.95;;
51985;SDS011;38002;53.296;6.600;2023-01-15T04:27:17;9.05;;;1.55;;
51985;SDS011;38002;53.296;6.600;2023-01-15T04:32:18;8.23;;;1.40;;
51985;SDS011;38002;53.296;6.600;2023-01-15T04:37:18;6.57;;;1.17;;
51985;SDS011;38002;53.296;6.600;2023-01-15T04:42:19;4.85;;;0.98;;
51985;SDS011;38002;53.296;6.600;2023-01-15T04:47:38;9.60;;;2.15;;
51985;SDS011;38002;53.296;6.600;2023-01-15T04:52:38;18.10;;;1.95;;
51985;SDS011;38002;53.296;6.600;2023-01-15T04:57:38;9.68;;;1.98;;
51985;SDS011;38002;53.296;6.600;2023-01-15T05:02:39;18.40;;;1.92;;
51985;SDS011;38002;53.296;6.600;2023-01-15T05:07:39;11.25;;;1.60;;
51985;SDS011;38002;53.296;6.600;2023-01-15T05:12:40;9.30;;;1.10;;
51985;SDS011;38002;53.296;6.600;2023-01-15T05:17:40;5.50;;;1.52;;
51985;SDS011;38002;53.296;6.600;2023-01-15T05:22:41;8.60;;;1.40;;
51985;SDS011;38002;53.296;6.600;2023-01-15T05:27:41;8.90;;;1.35;;
51985;SDS011;38002;53.296;6.600;2023-01-15T05:32:42;11.70;;;1.25;;
51985;SDS011;38002;53.296;6.600;2023-01-15T05:37:42;7.20;;;1.40;;
51985;SDS011;38002;53.296;6.600;2023-01-15T05:42:42;6.20;;;1.20;;
51985;SDS011;38002;53.296;6.600;2023-01-15T05:47:43;10.38;;;1.92;;
51985;SDS011;38002;53.296;6.600;2023-01-15T05:52:43;12.98;;;1.58;;
51985;SDS011;38002;53.296;6.600;2023-01-15T05:57:43;4.68;;;0.85;;
51985;SDS011;38002;53.296;6.600;2023-01-15T06:02:47;4.07;;;1.00;;
51985;SDS011;38002;53.296;6.600;2023-01-15T06:07:48;9.95;;;1.67;;
51985;SDS011;38002;53.296;6.600;2023-01-15T06:12:51;17.63;;;3.35;;
51985;SDS011;38002;53.296;6.600;2023-01-15T06:17:52;7.72;;;1.33;;
51985;SDS011;38002;53.296;6.600;2023-01-15T06:22:52;3.80;;;0.63;;
51985;SDS011;38002;53.296;6.600;2023-01-15T06:27:53;7.60;;;2.15;;
51985;SDS011;38002;53.296;6.600;2023-01-15T06:32:53;7.13;;;1.25;;
51985;SDS011;38002;53.296;6.600;2023-01-15T06:37:53;3.45;;;1.23;;
51985;SDS011;38002;53.296;6.600;2023-01-15T06:42:56;11.90;;;1.45;;
51985;SDS011;38002;53.296;6.600;2023-01-15T06:48:16;14.73;;;1.02;;
51985;SDS011;38002;53.296;6.600;2023-01-15T06:53:18;5.38;;;1.17;;
51985;SDS011;38002;53.296;6.600;2023-01-15T06:58:19;11.20;;;2.27;;
51985;SDS011;38002;53.296;6.600;2023-01-15T07:08:21;4.50;;;0.95;;
51985;SDS011;38002;53.296;6.600;2023-01-15T07:13:22;6.97;;;1.20;;
51985;SDS011;38002;53.296;6.600;2023-01-15T07:18:22;12.30;;;1.67;;
51985;SDS011;38002;53.296;6.600;2023-01-15T07:23:24;5.47;;;1.10;;
51985;SDS011;38002;53.296;6.600;2023-01-15T07:28:25;6.13;;;1.15;;
51985;SDS011;38002;53.296;6.600;2023-01-15T07:33:26;5.22;;;0.82;;
51985;SDS011;38002;53.296;6.600;2023-01-15T07:38:26;6.75;;;1.33;;
51985;SDS011;38002;53.296;6.600;2023-01-15T07:43:27;2.83;;;1.23;;
51985;SDS011;38002;53.296;6.600;2023-01-15T07:48:46;6.60;;;0.95;;
51985;SDS011;38002;53.296;6.600;2023-01-15T07:54:05;6.80;;;0.93;;
51985;SDS011;38002;53.296;6.600;2023-01-15T07:59:06;5.38;;;0.77;;
51985;SDS011;38002;53.296;6.600;2023-01-15T08:04:06;11.38;;;1.38;;
51985;SDS011;38002;53.296;6.600;2023-01-15T08:09:06;7.38;;;1.58;;
51985;SDS011;38002;53.296;6.600;2023-01-15T08:14:07;5.45;;;0.90;;
51985;SDS011;38002;53.296;6.600;2023-01-15T08:19:28;8.80;;;0.93;;
51985;SDS011;38002;53.296;6.600;2023-01-15T08:24:31;6.53;;;1.58;;
51985;SDS011;38002;53.296;6.600;2023-01-15T08:29:31;12.40;;;1.17;;
51985;SDS011;38002;53.296;6.600;2023-01-15T08:34:32;5.85;;;0.88;;
51985;SDS011;38002;53.296;6.600;2023-01-15T08:39:32;2.97;;;0.90;;
51985;SDS011;38002;53.296;6.600;2023-01-15T08:44:33;2.38;;;0.68;;
51985;SDS011;38002;53.296;6.600;2023-01-15T08:49:33;4.60;;;1.05;;
51985;SDS011;38002;53.296;6.600;2023-01-15T08:54:33;7.32;;;1.00;;
51985;SDS011;38002;53.296;6.600;2023-01-15T08:59:34;10.32;;;1.10;;
51985;SDS011;38002;53.296;6.600;2023-01-15T09:04:34;18.63;;;2.17;;
51985;SDS011;38002;53.296;6.600;2023-01-15T09:09:35;3.17;;;0.80;;
51985;SDS011;38002;53.296;6.600;2023-01-15T09:14:35;13.95;;;1.45;;
51985;SDS011;38002;53.296;6.600;2023-01-15T09:19:36;4.72;;;1.58;;
51985;SDS011;38002;53.296;6.600;2023-01-15T09:24:36;15.77;;;1.63;;
51985;SDS011;38002;53.296;6.600;2023-01-15T09:29:37;5.53;;;0.90;;
51985;SDS011;38002;53.296;6.600;2023-01-15T09:34:37;12.73;;;1.88;;
51985;SDS011;38002;53.296;6.600;2023-01-15T09:39:38;11.30;;;1.38;;
51985;SDS011;38002;53.296;6.600;2023-01-15T09:44:45;4.22;;;1.08;;
51985;SDS011;38002;53.296;6.600;2023-01-15T09:55:29;5.78;;;0.98;;
51985;SDS011;38002;53.296;6.600;2023-01-15T10:00:39;7.30;;;1.30;;
51985;SDS011;38002;53.296;6.600;2023-01-15T10:05:45;10.27;;;2.13;;
51985;SDS011;38002;53.296;6.600;2023-01-15T10:16:21;10.57;;;1.98;;
51985;SDS011;38002;53.296;6.600;2023-01-15T10:26:54;7.57;;;1.55;;
51985;SDS011;38002;53.296;6.600;2023-01-15T10:32:02;8.80;;;1.50;;
51985;SDS011;38002;53.296;6.600;2023-01-15T10:37:33;6.10;;;0.73;;
51985;SDS011;38002;53.296;6.600;2023-01-15T10:48:15;7.55;;;1.60;;
51985;SDS011;38002;53.296;6.600;2023-01-15T10:58:53;2.85;;;0.73;;
51985;SDS011;38002;53.296;6.600;2023-01-15T11:03:57;5.38;;;1.08;;
51985;SDS011;38002;53.296;6.600;2023-01-15T11:08:58;11.65;;;2.67;;
51985;SDS011;38002;53.296;6.600;2023-01-15T11:13:59;5.50;;;1.35;;
51985;SDS011;38002;53.296;6.600;2023-01-15T11:29:57;5.43;;;1.40;;
51985;SDS011;38002;53.296;6.600;2023-01-15T11:40:18;7.03;;;1.48;;
51985;SDS011;38002;53.296;6.600;2023-01-15T11:45:20;10.02;;;0.90;;
51985;SDS011;38002;53.296;6.600;2023-01-15T11:50:48;5.88;;;1.10;;
51985;SDS011;38002;53.296;6.600;2023-01-15T11:56:01;9.95;;;1.52;;
51985;SDS011;38002;53.296;6.600;2023-01-15T12:01:06;7.28;;;1.20;;
51985;SDS011;38002;53.296;6.600;2023-01-15T12:06:08;14.23;;;1.75;;
51985;SDS011;38002;53.296;6.600;2023-01-15T12:11:30;12.73;;;1.80;;
51985;SDS011;38002;53.296;6.600;2023-01-15T12:16:55;13.05;;;3.00;;
51985;SDS011;38002;53.296;6.600;2023-01-15T12:32:19;4.93;;;1.05;;
51985;SDS011;38002;53.296;6.600;2023-01-15T12:37:27;2.72;;;1.00;;
51985;SDS011;38002;53.296;6.600;2023-01-15T12:42:33;2.78;;;0.55;;
51985;SDS011;38002;53.296;6.600;2023-01-15T12:52:57;5.30;;;0.85;;
51985;SDS011;38002;53.296;6.600;2023-01-15T12:58:11;1.85;;;0.65;;
51985;SDS011;38002;53.296;6.600;2023-01-15T13:03:27;2.72;;;1.08;;
51985;SDS011;38002;53.296;6.600;2023-01-15T13:08:35;6.15;;;0.85;;
51985;SDS011;38002;53.296;6.600;2023-01-15T13:13:50;5.97;;;0.88;;
51985;SDS011;38002;53.296;6.600;2023-01-15T13:35:40;5.03;;;1.17;;
51985;SDS011;38002;53.296;6.600;2023-01-15T13:40:50;11.45;;;1.27;;
51985;SDS011;38002;53.296;6.600;2023-01-15T13:45:53;9.10;;;1.08;;
51985;SDS011;38002;53.296;6.600;2023-01-15T13:56:07;2.95;;;0.65;;
51985;SDS011;38002;53.296;6.600;2023-01-15T14:06:21;8.60;;;0.65;;
51985;SDS011;38002;53.296;6.600;2023-01-15T14:11:56;2.30;;;0.70;;
51985;SDS011;38002;53.296;6.600;2023-01-15T14:34:02;8.57;;;1.58;;
51985;SDS011;38002;53.296;6.600;2023-01-15T14:39:24;7.88;;;1.30;;
51985;SDS011;38002;53.296;6.600;2023-01-15T14:44:31;9.60;;;1.55;;
51985;SDS011;38002;53.296;6.600;2023-01-15T14:49:43;9.77;;;1.67;;
51985;SDS011;38002;53.296;6.600;2023-01-15T14:54:48;9.05;;;1.48;;
51985;SDS011;38002;53.296;6.600;2023-01-15T14:59:59;13.40;;;1.90;;
51985;SDS011;38002;53.296;6.600;2023-01-15T15:10:17;15.05;;;2.10;;
51985;SDS011;38002;53.296;6.600;2023-01-15T15:20:32;7.70;;;1.35;;
51985;SDS011;38002;53.296;6.600;2023-01-15T15:26:00;14.45;;;1.65;;
51985;SDS011;38002;53.296;6.600;2023-01-15T15:31:02;7.93;;;2.58;;
51985;SDS011;38002;53.296;6.600;2023-01-15T15:36:03;8.55;;;1.73;;
51985;SDS011;38002;53.296;6.600;2023-01-15T15:41:05;5.57;;;1.67;;
51985;SDS011;38002;53.296;6.600;2023-01-15T15:46:23;8.48;;;1.73;;
51985;SDS011;38002;53.296;6.600;2023-01-15T15:51:45;10.85;;;1.50;;
51985;SDS011;38002;53.296;6.600;2023-01-15T16:02:13;16.15;;;2.00;;
51985;SDS011;38002;53.296;6.600;2023-01-15T16:07:19;9.25;;;2.08;;
51985;SDS011;38002;53.296;6.600;2023-01-15T16:12:29;9.05;;;1.83;;
51985;SDS011;38002;53.296;6.600;2023-01-15T16:17:33;8.18;;;1.35;;
51985;SDS011;38002;53.296;6.600;2023-01-15T16:22:45;4.45;;;1.00;;
51985;SDS011;38002;53.296;6.600;2023-01-15T16:28:06;10.60;;;1.73;;
51985;SDS011;38002;53.296;6.600;2023-01-15T16:33:32;11.77;;;1.88;;
51985;SDS011;38002;53.296;6.600;2023-01-15T16:38:45;9.80;;;2.00;;
51985;SDS011;38002;53.296;6.600;2023-01-15T16:43:52;5.43;;;1.10;;
51985;SDS011;38002;53.296;6.600;2023-01-15T17:09:34;13.43;;;1.92;;
51985;SDS011;38002;53.296;6.600;2023-01-15T17:14:36;2.83;;;1.40;;
51985;SDS011;38002;53.296;6.600;2023-01-15T17:19:37;3.45;;;0.90;;
51985;SDS011;38002;53.296;6.600;2023-01-15T17:24:44;6.05;;;1.38;;
51985;SDS011;38002;53.296;6.600;2023-01-15T17:29:46;10.63;;;1.60;;
51985;SDS011;38002;53.296;6.600;2023-01-15T17:34:46;9.00;;;1.85;;
51985;SDS011;38002;53.296;6.600;2023-01-15T17:39:48;6.53;;;1.20;;
51985;SDS011;38002;53.296;6.600;2023-01-15T17:44:48;9.93;;;2.00;;
51985;SDS011;38002;53.296;6.600;2023-01-15T17:49:48;11.15;;;1.92;;
51985;SDS011;38002;53.296;6.600;2023-01-15T17:54:49;11.40;;;1.42;;
51985;SDS011;38002;53.296;6.600;2023-01-15T18:00:09;8.73;;;2.17;;
51985;SDS011;38002;53.296;6.600;2023-01-15T18:05:28;7.25;;;1.95;;
51985;SDS011;38002;53.296;6.600;2023-01-15T18:10:34;5.47;;;1.10;;
51985;SDS011;38002;53.296;6.600;2023-01-15T18:15:34;3.33;;;1.00;;
51985;SDS011;38002;53.296;6.600;2023-01-15T18:20:35;4.13;;;1.38;;
51985;SDS011;38002;53.296;6.600;2023-01-15T18:25:36;5.35;;;1.35;;
51985;SDS011;38002;53.296;6.600;2023-01-15T18:30:36;5.22;;;1.33;;
51985;SDS011;38002;53.296;6.600;2023-01-15T18:35:37;8.55;;;1.75;;
51985;SDS011;38002;53.296;6.600;2023-01-15T18:40:38;11.82;;;1.42;;
51985;SDS011;38002;53.296;6.600;2023-01-15T18:45:38;9.45;;;2.35;;
51985;SDS011;38002;53.296;6.600;2023-01-15T18:50:58;10.02;;;1.92;;
51985;SDS011;38002;53.296;6.600;2023-01-15T18:56:05;9.75;;;2.15;;
51985;SDS011;38002;53.296;6.600;2023-01-15T19:01:06;8.65;;;1.48;;
51985;SDS011;38002;53.296;6.600;2023-01-15T19:06:07;10.30;;;2.23;;
51985;SDS011;38002;53.296;6.600;2023-01-15T19:11:12;7.05;;;2.22;;
51985;SDS011;38002;53.296;6.600;2023-01-15T19:16:12;4.68;;;2.45;;
51985;SDS011;38002;53.296;6.600;2023-01-15T19:21:31;15.30;;;2.40;;
51985;SDS011;38002;53.296;6.600;2023-01-15T19:26:32;10.95;;;2.78;;
51985;SDS011;38002;53.296;6.600;2023-01-15T19:31:33;13.52;;;2.08;;
51985;SDS011;38002;53.296;6.600;2023-01-15T19:36:38;7.53;;;2.00;;
51985;SDS011;38002;53.296;6.600;2023-01-15T19:41:38;13.50;;;2.25;;
51985;SDS011;38002;53.296;6.600;2023-01-15T19:46:58;8.95;;;1.90;;
51985;SDS011;38002;53.296;6.600;2023-01-15T19:52:17;6.55;;;1.75;;
51985;SDS011;38002;53.296;6.600;2023-01-15T19:57:33;12.00;;;3.15;;
51985;SDS011;38002;53.296;6.600;2023-01-15T20:02:34;9.27;;;1.98;;
51985;SDS011;38002;53.296;6.600;2023-01-15T20:07:35;11.43;;;2.97;;
51985;SDS011;38002;53.296;6.600;2023-01-15T20:12:37;13.30;;;3.20;;
51985;SDS011;38002;53.296;6.600;2023-01-15T20:17:56;7.90;;;1.90;;
51985;SDS011;38002;53.296;6.600;2023-01-15T20:22:57;7.65;;;1.70;;
51985;SDS011;38002;53.296;6.600;2023-01-15T20:27:57;14.18;;;1.80;;
51985;SDS011;38002;53.296;6.600;2023-01-15T20:32:59;5.93;;;1.80;;
51985;SDS011;38002;53.296;6.600;2023-01-15T20:37:59;10.88;;;1.92;;
51985;SDS011;38002;53.296;6.600;2023-01-15T20:43:00;7.63;;;1.55;;
51985;SDS011;38002;53.296;6.600;2023-01-15T20:48:19;2.95;;;1.27;;
51985;SDS011;38002;53.296;6.600;2023-01-15T20:53:38;9.50;;;2.17;;
51985;SDS011;38002;53.296;6.600;2023-01-15T20:58:40;4.95;;;1.38;;
51985;SDS011;38002;53.296;6.600;2023-01-15T21:03:41;3.80;;;2.30;;
51985;SDS011;38002;53.296;6.600;2023-01-15T21:08:41;4.43;;;1.77;;
51985;SDS011;38002;53.296;6.600;2023-01-15T21:13:45;2.58;;;2.30;;
51985;SDS011;38002;53.296;6.600;2023-01-15T21:18:46;4.45;;;2.35;;
51985;SDS011;38002;53.296;6.600;2023-01-15T21:23:48;6.57;;;2.55;;
51985;SDS011;38002;53.296;6.600;2023-01-15T21:28:51;3.03;;;2.78;;
51985;SDS011;38002;53.296;6.600;2023-01-15T21:33:53;4.28;;;2.22;;
51985;SDS011;38002;53.296;6.600;2023-01-15T21:38:54;5.83;;;2.33;;
51985;SDS011;38002;53.296;6.600;2023-01-15T21:43:55;8.53;;;2.80;;
51985;SDS011;38002;53.296;6.600;2023-01-15T21:49:14;4.68;;;2.38;;
51985;SDS011;38002;53.296;6.600;2023-01-15T21:54:15;4.10;;;2.88;;
51985;SDS011;38002;53.296;6.600;2023-01-15T21:59:15;6.22;;;3.53;;
51985;SDS011;38002;53.296;6.600;2023-01-15T22:04:16;4.70;;;3.42;;
51985;SDS011;38002;53.296;6.600;2023-01-15T22:09:16;2.85;;;2.40;;
51985;SDS011;38002;53.296;6.600;2023-01-15T22:14:25;3.10;;;2.70;;
51985;SDS011;38002;53.296;6.600;2023-01-15T22:19:28;5.43;;;3.05;;
51985;SDS011;38002;53.296;6.600;2023-01-15T22:24:31;7.32;;;3.35;;
51985;SDS011;38002;53.296;6.600;2023-01-15T22:29:36;5.75;;;3.72;;
51985;SDS011;38002;53.296;6.600;2023-01-15T22:34:38;5.65;;;3.30;;
51985;SDS011;38002;53.296;6.600;2023-01-15T22:39:39;9.02;;;3.20;;
51985;SDS011;38002;53.296;6.600;2023-01-15T22:44:39;6.68;;;4.10;;
51985;SDS011;38002;53.296;6.600;2023-01-15T22:49:42;11.38;;;4.40;;
51985;SDS011;38002;53.296;6.600;2023-01-15T22:54:42;10.73;;;4.90;;
51985;SDS011;38002;53.296;6.600;2023-01-15T22:59:44;6.03;;;4.53;;
51985;SDS011;38002;53.296;6.600;2023-01-15T23:04:45;6.53;;;4.60;;
51985;SDS011;38002;53.296;6.600;2023-01-15T23:09:45;9.77;;;4.82;;
51985;SDS011;38002;53.296;6.600;2023-01-15T23:14:48;7.35;;;5.38;;
51985;SDS011;38002;53.296;6.600;2023-01-15T23:19:49;4.20;;;3.45;;
51985;SDS011;38002;53.296;6.600;2023-01-15T23:24:49;5.97;;;4.68;;
51985;SDS011;38002;53.296;6.600;2023-01-15T23:29:49;5.88;;;4.43;;
51985;SDS011;38002;53.296;6.600;2023-01-15T23:34:50;10.23;;;5.30;;
51985;SDS011;38002;53.296;6.600;2023-01-15T23:39:51;9.95;;;4.88;;
51985;SDS011;38002;53.296;6.600;2023-01-15T23:44:52;7.90;;;4.75;;
51985;SDS011;38002;53.296;6.600;2023-01-15T23:50:11;6.60;;;4.57;;
51985;SDS011;38002;53.296;6.600;2023-01-15T23:55:11;4.38;;;3.97;;
